Kezdőlap
METAR-TAF:

METAR-TAF

Repülőterek :

Fairbanks, Alaszka, Amerikai Egyesült Államok

földrajzi szélesség: 64-48-14N, földrajzi hosszúság: 147-52-34W, magasság: 132 m

Jelenlegi meteorológiai megfigyelések

A jelentés 1 órával és 2 perccel ezelõtt készült, 06:53 UTC
Észak-északkeleti szél 3 kt
Hőmérséklet 23°C
Páratartalom 57%
Légköri nyomás 1017 hPa
Látótávolság: 16.1 km
Kevés felhő 6000 lábon
Kevés felhő 9000 lábon
Szórványos felhőzet 25000 lábon

METAR: PAFA 230653Z 02003KT 10SM FEW060 FEW090 SCT250 23/14 A3002 RMK AO2 SLP168 T02280144

Idő: 23:55 (07:55 UTC)

Előrejelzés

A jelentés 2 órával és 30 perccel ezelõtt készült, 05:25 UTC
Az előrejelzés 23-én 06 óra UTC és 24-én 12 óra UTC között érvényes
Kelet-északkeleti szél 4 kt
Látótávolság: 10 km
Kevés felhő 6000 lábon
Kevés felhő 9000 lábon

TAF: PAFA 230525Z 2306/2412 06004KT P6SM FEW060 FEW090

Meteorológiai megfigyelések és előrejelzések több, mint 4000 repülőtéren (METAR és TAF jelentéseket).

A térképen piros és sárga pontok jelzik az elérhető meteorológiai állomásokat.

Mozgassa az egeret a pont fölött, hogy megjelenjen az állomás neve.

Azután kattintson az időjárási megfigyelések és előrejelzések megtekintéséhez.

A térkép megváltoztatása: kattintson a fekete keresztel jelölt zöld gombra ráközelítéshez, a vonallal jelölt zöld gombra távolításhoz, vagy a zöld nyilakra a szomszédos térképek eléréséhez.


METAR-TAF: